sensor_id;sensor_type;location;lat;lon;timestamp;P1;durP1;ratioP1;P2;durP2;ratioP2
51724;SDS011;37801;53.224;6.552;2023-02-18T00:01:00;12.25;;;2.70;;
51724;SDS011;37801;53.224;6.552;2023-02-18T00:03:27;15.00;;;2.72;;
51724;SDS011;37801;53.224;6.552;2023-02-18T00:05:54;13.15;;;2.72;;
51724;SDS011;37801;53.224;6.552;2023-02-18T00:08:20;9.52;;;2.13;;
51724;SDS011;37801;53.224;6.552;2023-02-18T00:10:46;11.50;;;2.15;;
51724;SDS011;37801;53.224;6.552;2023-02-18T00:13:12;17.27;;;2.72;;
51724;SDS011;37801;53.224;6.552;2023-02-18T00:15:38;14.57;;;2.22;;
51724;SDS011;37801;53.224;6.552;2023-02-18T00:18:04;13.93;;;2.88;;
51724;SDS011;37801;53.224;6.552;2023-02-18T00:20:30;11.25;;;2.38;;
51724;SDS011;37801;53.224;6.552;2023-02-18T00:23:00;14.27;;;2.72;;
51724;SDS011;37801;53.224;6.552;2023-02-18T00:25:27;8.75;;;1.92;;
51724;SDS011;37801;53.224;6.552;2023-02-18T00:27:53;11.80;;;2.03;;
51724;SDS011;37801;53.224;6.552;2023-02-18T00:30:18;16.08;;;2.70;;
51724;SDS011;37801;53.224;6.552;2023-02-18T00:32:44;18.25;;;2.53;;
51724;SDS011;37801;53.224;6.552;2023-02-18T00:35:10;10.32;;;2.17;;
51724;SDS011;37801;53.224;6.552;2023-02-18T00:37:36;13.38;;;2.20;;
51724;SDS011;37801;53.224;6.552;2023-02-18T00:40:02;9.90;;;2.53;;
51724;SDS011;37801;53.224;6.552;2023-02-18T00:42:27;13.30;;;2.00;;
51724;SDS011;37801;53.224;6.552;2023-02-18T00:44:53;14.55;;;2.83;;
51724;SDS011;37801;53.224;6.552;2023-02-18T00:47:19;14.70;;;2.83;;
51724;SDS011;37801;53.224;6.552;2023-02-18T00:49:45;13.20;;;2.58;;
51724;SDS011;37801;53.224;6.552;2023-02-18T00:52:10;12.95;;;2.88;;
51724;SDS011;37801;53.224;6.552;2023-02-18T00:54:36;8.35;;;2.00;;
51724;SDS011;37801;53.224;6.552;2023-02-18T00:57:02;14.57;;;2.45;;
51724;SDS011;37801;53.224;6.552;2023-02-18T00:59:28;15.88;;;2.55;;
51724;SDS011;37801;53.224;6.552;2023-02-18T01:01:53;11.77;;;2.50;;
51724;SDS011;37801;53.224;6.552;2023-02-18T01:04:19;13.25;;;2.53;;
51724;SDS011;37801;53.224;6.552;2023-02-18T01:06:45;13.50;;;2.88;;
51724;SDS011;37801;53.224;6.552;2023-02-18T01:09:10;11.60;;;2.35;;
51724;SDS011;37801;53.224;6.552;2023-02-18T01:11:36;13.55;;;3.15;;
51724;SDS011;37801;53.224;6.552;2023-02-18T01:14:02;11.52;;;2.78;;
51724;SDS011;37801;53.224;6.552;2023-02-18T01:16:28;10.27;;;2.72;;
51724;SDS011;37801;53.224;6.552;2023-02-18T01:18:54;11.63;;;2.85;;
51724;SDS011;37801;53.224;6.552;2023-02-18T01:21:20;11.05;;;2.75;;
51724;SDS011;37801;53.224;6.552;2023-02-18T01:23:46;11.18;;;2.78;;
51724;SDS011;37801;53.224;6.552;2023-02-18T01:26:11;11.35;;;2.55;;
51724;SDS011;37801;53.224;6.552;2023-02-18T01:28:38;15.73;;;3.25;;
51724;SDS011;37801;53.224;6.552;2023-02-18T01:31:08;10.02;;;2.53;;
51724;SDS011;37801;53.224;6.552;2023-02-18T01:33:36;10.38;;;2.05;;
51724;SDS011;37801;53.224;6.552;2023-02-18T01:36:02;13.30;;;3.05;;
51724;SDS011;37801;53.224;6.552;2023-02-18T01:38:28;9.63;;;2.47;;
51724;SDS011;37801;53.224;6.552;2023-02-18T01:40:54;11.32;;;2.83;;
51724;SDS011;37801;53.224;6.552;2023-02-18T01:43:20;14.48;;;2.95;;
51724;SDS011;37801;53.224;6.552;2023-02-18T01:45:53;14.90;;;2.65;;
51724;SDS011;37801;53.224;6.552;2023-02-18T01:48:29;11.73;;;2.80;;
51724;SDS011;37801;53.224;6.552;2023-02-18T01:51:45;12.95;;;2.42;;
51724;SDS011;37801;53.224;6.552;2023-02-18T01:56:23;11.95;;;2.63;;
51724;SDS011;37801;53.224;6.552;2023-02-18T01:58:54;12.93;;;2.80;;
51724;SDS011;37801;53.224;6.552;2023-02-18T02:01:22;12.45;;;3.00;;
51724;SDS011;37801;53.224;6.552;2023-02-18T02:03:50;14.25;;;2.80;;
51724;SDS011;37801;53.224;6.552;2023-02-18T02:06:17;13.48;;;2.85;;
51724;SDS011;37801;53.224;6.552;2023-02-18T02:08:45;14.40;;;2.60;;
51724;SDS011;37801;53.224;6.552;2023-02-18T02:17:27;10.23;;;2.25;;
51724;SDS011;37801;53.224;6.552;2023-02-18T02:44:56;13.75;;;3.28;;
51724;SDS011;37801;53.224;6.552;2023-02-18T02:50:18;9.85;;;2.50;;
51724;SDS011;37801;53.224;6.552;2023-02-18T02:52:51;13.75;;;3.15;;
51724;SDS011;37801;53.224;6.552;2023-02-18T02:55:23;9.85;;;2.65;;
51724;SDS011;37801;53.224;6.552;2023-02-18T02:57:50;13.45;;;3.33;;
51724;SDS011;37801;53.224;6.552;2023-02-18T03:00:19;10.55;;;2.63;;
51724;SDS011;37801;53.224;6.552;2023-02-18T03:03:11;11.00;;;2.88;;
51724;SDS011;37801;53.224;6.552;2023-02-18T03:08:46;14.27;;;3.63;;
51724;SDS011;37801;53.224;6.552;2023-02-18T03:11:20;11.32;;;3.55;;
51724;SDS011;37801;53.224;6.552;2023-02-18T03:14:05;11.43;;;2.70;;
51724;SDS011;37801;53.224;6.552;2023-02-18T03:16:57;12.95;;;3.13;;
51724;SDS011;37801;53.224;6.552;2023-02-18T03:22:32;10.18;;;2.78;;
51724;SDS011;37801;53.224;6.552;2023-02-18T03:25:02;11.75;;;2.97;;
51724;SDS011;37801;53.224;6.552;2023-02-18T03:27:30;12.82;;;3.42;;
51724;SDS011;37801;53.224;6.552;2023-02-18T03:30:22;9.18;;;2.80;;
51724;SDS011;37801;53.224;6.552;2023-02-18T03:32:55;9.98;;;2.85;;
51724;SDS011;37801;53.224;6.552;2023-02-18T03:35:28;11.82;;;3.13;;
51724;SDS011;37801;53.224;6.552;2023-02-18T03:40:43;13.80;;;3.72;;
51724;SDS011;37801;53.224;6.552;2023-02-18T03:43:09;11.80;;;3.22;;
51724;SDS011;37801;53.224;6.552;2023-02-18T03:45:35;12.98;;;2.85;;
51724;SDS011;37801;53.224;6.552;2023-02-18T03:48:00;11.85;;;3.13;;
51724;SDS011;37801;53.224;6.552;2023-02-18T03:50:26;13.45;;;3.40;;
51724;SDS011;37801;53.224;6.552;2023-02-18T03:52:52;17.08;;;3.90;;
51724;SDS011;37801;53.224;6.552;2023-02-18T03:55:17;12.00;;;3.53;;
51724;SDS011;37801;53.224;6.552;2023-02-18T03:57:43;9.75;;;3.28;;
51724;SDS011;37801;53.224;6.552;2023-02-18T04:00:09;16.00;;;3.72;;
51724;SDS011;37801;53.224;6.552;2023-02-18T04:02:35;12.93;;;3.58;;
51724;SDS011;37801;53.224;6.552;2023-02-18T04:05:02;11.95;;;3.58;;
51724;SDS011;37801;53.224;6.552;2023-02-18T04:07:27;16.90;;;3.72;;
51724;SDS011;37801;53.224;6.552;2023-02-18T04:09:53;9.95;;;3.58;;
51724;SDS011;37801;53.224;6.552;2023-02-18T04:12:19;8.23;;;3.30;;
51724;SDS011;37801;53.224;6.552;2023-02-18T04:14:44;10.82;;;3.25;;
51724;SDS011;37801;53.224;6.552;2023-02-18T04:17:10;11.98;;;3.55;;
51724;SDS011;37801;53.224;6.552;2023-02-18T04:19:36;14.60;;;3.72;;
51724;SDS011;37801;53.224;6.552;2023-02-18T04:22:02;12.70;;;3.90;;
51724;SDS011;37801;53.224;6.552;2023-02-18T04:24:27;13.38;;;3.60;;
51724;SDS011;37801;53.224;6.552;2023-02-18T04:26:53;12.10;;;3.58;;
51724;SDS011;37801;53.224;6.552;2023-02-18T04:29:19;13.63;;;3.90;;
51724;SDS011;37801;53.224;6.552;2023-02-18T04:31:44;14.52;;;4.15;;
51724;SDS011;37801;53.224;6.552;2023-02-18T04:34:10;8.25;;;3.53;;
51724;SDS011;37801;53.224;6.552;2023-02-18T04:36:36;8.52;;;3.40;;
51724;SDS011;37801;53.224;6.552;2023-02-18T04:39:02;9.98;;;3.75;;
51724;SDS011;37801;53.224;6.552;2023-02-18T04:41:28;10.38;;;3.55;;
51724;SDS011;37801;53.224;6.552;2023-02-18T04:43:53;10.82;;;3.38;;
51724;SDS011;37801;53.224;6.552;2023-02-18T04:46:19;9.55;;;3.40;;
51724;SDS011;37801;53.224;6.552;2023-02-18T04:48:45;13.00;;;3.92;;
51724;SDS011;37801;53.224;6.552;2023-02-18T04:51:11;11.20;;;3.78;;
51724;SDS011;37801;53.224;6.552;2023-02-18T04:53:36;9.30;;;3.88;;
51724;SDS011;37801;53.224;6.552;2023-02-18T04:56:02;11.52;;;3.83;;
51724;SDS011;37801;53.224;6.552;2023-02-18T04:58:28;13.82;;;4.70;;
51724;SDS011;37801;53.224;6.552;2023-02-18T05:00:57;11.35;;;4.82;;
51724;SDS011;37801;53.224;6.552;2023-02-18T05:03:24;9.05;;;4.80;;
51724;SDS011;37801;53.224;6.552;2023-02-18T05:05:50;12.45;;;4.90;;
51724;SDS011;37801;53.224;6.552;2023-02-18T05:08:16;12.50;;;5.35;;
51724;SDS011;37801;53.224;6.552;2023-02-18T05:10:43;17.30;;;7.28;;
51724;SDS011;37801;53.224;6.552;2023-02-18T05:13:08;17.65;;;7.38;;
51724;SDS011;37801;53.224;6.552;2023-02-18T05:15:34;15.95;;;7.97;;
51724;SDS011;37801;53.224;6.552;2023-02-18T05:18:00;18.58;;;9.85;;
51724;SDS011;37801;53.224;6.552;2023-02-18T05:20:26;22.83;;;10.55;;
51724;SDS011;37801;53.224;6.552;2023-02-18T05:22:52;21.85;;;11.88;;
51724;SDS011;37801;53.224;6.552;2023-02-18T05:25:18;22.30;;;13.40;;
51724;SDS011;37801;53.224;6.552;2023-02-18T05:27:43;26.00;;;14.68;;
51724;SDS011;37801;53.224;6.552;2023-02-18T05:30:09;27.20;;;15.10;;
51724;SDS011;37801;53.224;6.552;2023-02-18T05:32:35;28.92;;;15.23;;
51724;SDS011;37801;53.224;6.552;2023-02-18T05:35:01;24.67;;;15.35;;
51724;SDS011;37801;53.224;6.552;2023-02-18T05:37:27;28.58;;;16.80;;
51724;SDS011;37801;53.224;6.552;2023-02-18T05:39:52;31.13;;;17.52;;
51724;SDS011;37801;53.224;6.552;2023-02-18T05:42:18;29.02;;;17.80;;
51724;SDS011;37801;53.224;6.552;2023-02-18T05:44:44;28.45;;;17.85;;
51724;SDS011;37801;53.224;6.552;2023-02-18T05:47:11;29.33;;;17.75;;
51724;SDS011;37801;53.224;6.552;2023-02-18T05:49:38;27.58;;;17.52;;
51724;SDS011;37801;53.224;6.552;2023-02-18T05:52:05;27.80;;;17.55;;
51724;SDS011;37801;53.224;6.552;2023-02-18T05:54:31;27.77;;;17.48;;
51724;SDS011;37801;53.224;6.552;2023-02-18T05:56:57;27.30;;;16.00;;
51724;SDS011;37801;53.224;6.552;2023-02-18T05:59:23;23.42;;;15.45;;
51724;SDS011;37801;53.224;6.552;2023-02-18T06:01:50;27.17;;;16.15;;
51724;SDS011;37801;53.224;6.552;2023-02-18T06:04:16;20.23;;;14.35;;
51724;SDS011;37801;53.224;6.552;2023-02-18T06:06:42;20.48;;;13.57;;
51724;SDS011;37801;53.224;6.552;2023-02-18T06:09:08;18.55;;;13.20;;
51724;SDS011;37801;53.224;6.552;2023-02-18T06:11:37;20.23;;;13.18;;
51724;SDS011;37801;53.224;6.552;2023-02-18T06:14:03;20.52;;;13.00;;
51724;SDS011;37801;53.224;6.552;2023-02-18T06:16:29;16.73;;;11.73;;
51724;SDS011;37801;53.224;6.552;2023-02-18T06:18:55;19.08;;;12.10;;
51724;SDS011;37801;53.224;6.552;2023-02-18T06:21:20;16.70;;;11.98;;
51724;SDS011;37801;53.224;6.552;2023-02-18T06:23:46;16.45;;;11.82;;
51724;SDS011;37801;53.224;6.552;2023-02-18T06:26:12;18.60;;;12.27;;
51724;SDS011;37801;53.224;6.552;2023-02-18T06:28:38;18.30;;;11.75;;
51724;SDS011;37801;53.224;6.552;2023-02-18T06:31:04;17.67;;;11.48;;
51724;SDS011;37801;53.224;6.552;2023-02-18T06:33:30;16.95;;;11.02;;
51724;SDS011;37801;53.224;6.552;2023-02-18T06:36:00;18.13;;;10.85;;
51724;SDS011;37801;53.224;6.552;2023-02-18T06:38:31;16.67;;;10.52;;
51724;SDS011;37801;53.224;6.552;2023-02-18T06:40:57;14.48;;;9.65;;
51724;SDS011;37801;53.224;6.552;2023-02-18T06:43:22;16.05;;;9.65;;
51724;SDS011;37801;53.224;6.552;2023-02-18T06:45:50;14.75;;;8.95;;
51724;SDS011;37801;53.224;6.552;2023-02-18T06:48:16;14.52;;;9.15;;
51724;SDS011;37801;53.224;6.552;2023-02-18T06:50:42;13.18;;;8.00;;
51724;SDS011;37801;53.224;6.552;2023-02-18T06:53:09;12.02;;;7.68;;
51724;SDS011;37801;53.224;6.552;2023-02-18T06:55:35;13.35;;;8.15;;
51724;SDS011;37801;53.224;6.552;2023-02-18T06:58:02;12.30;;;8.25;;
51724;SDS011;37801;53.224;6.552;2023-02-18T07:00:27;12.82;;;8.30;;
51724;SDS011;37801;53.224;6.552;2023-02-18T07:02:53;11.32;;;7.95;;
51724;SDS011;37801;53.224;6.552;2023-02-18T07:05:19;10.95;;;7.50;;
51724;SDS011;37801;53.224;6.552;2023-02-18T07:07:45;13.25;;;8.57;;
51724;SDS011;37801;53.224;6.552;2023-02-18T07:10:11;14.50;;;10.05;;
51724;SDS011;37801;53.224;6.552;2023-02-18T07:12:36;15.95;;;10.20;;
51724;SDS011;37801;53.224;6.552;2023-02-18T07:15:02;19.17;;;11.65;;
51724;SDS011;37801;53.224;6.552;2023-02-18T07:17:28;19.73;;;13.13;;
51724;SDS011;37801;53.224;6.552;2023-02-18T07:19:54;19.50;;;12.90;;
51724;SDS011;37801;53.224;6.552;2023-02-18T07:22:20;20.48;;;13.63;;
51724;SDS011;37801;53.224;6.552;2023-02-18T07:24:50;19.88;;;14.18;;
51724;SDS011;37801;53.224;6.552;2023-02-18T07:27:17;22.73;;;14.35;;
51724;SDS011;37801;53.224;6.552;2023-02-18T07:29:43;19.75;;;14.02;;
51724;SDS011;37801;53.224;6.552;2023-02-18T07:32:12;20.90;;;13.90;;
51724;SDS011;37801;53.224;6.552;2023-02-18T07:34:39;23.67;;;14.07;;
51724;SDS011;37801;53.224;6.552;2023-02-18T07:37:05;20.25;;;13.57;;
51724;SDS011;37801;53.224;6.552;2023-02-18T07:39:42;21.33;;;13.00;;
51724;SDS011;37801;53.224;6.552;2023-02-18T07:42:09;22.27;;;12.70;;
51724;SDS011;37801;53.224;6.552;2023-02-18T07:44:35;19.10;;;12.73;;
51724;SDS011;37801;53.224;6.552;2023-02-18T07:47:02;21.58;;;11.88;;
51724;SDS011;37801;53.224;6.552;2023-02-18T07:49:29;18.42;;;11.40;;
51724;SDS011;37801;53.224;6.552;2023-02-18T07:51:55;19.52;;;11.40;;
51724;SDS011;37801;53.224;6.552;2023-02-18T07:54:21;17.77;;;11.95;;
51724;SDS011;37801;53.224;6.552;2023-02-18T07:56:47;19.33;;;11.02;;
51724;SDS011;37801;53.224;6.552;2023-02-18T07:59:13;18.52;;;11.32;;
51724;SDS011;37801;53.224;6.552;2023-02-18T08:01:39;20.25;;;10.73;;
51724;SDS011;37801;53.224;6.552;2023-02-18T08:04:06;16.05;;;10.07;;
51724;SDS011;37801;53.224;6.552;2023-02-18T08:06:33;19.15;;;10.50;;
51724;SDS011;37801;53.224;6.552;2023-02-18T08:09:00;18.98;;;10.20;;
51724;SDS011;37801;53.224;6.552;2023-02-18T08:11:27;15.43;;;9.57;;
51724;SDS011;37801;53.224;6.552;2023-02-18T08:13:52;17.95;;;9.82;;
51724;SDS011;37801;53.224;6.552;2023-02-18T08:16:19;16.85;;;9.63;;
51724;SDS011;37801;53.224;6.552;2023-02-18T08:18:46;14.50;;;8.15;;
51724;SDS011;37801;53.224;6.552;2023-02-18T08:21:13;15.65;;;9.93;;
51724;SDS011;37801;53.224;6.552;2023-02-18T08:23:40;18.30;;;9.43;;
51724;SDS011;37801;53.224;6.552;2023-02-18T08:26:06;15.38;;;8.63;;
51724;SDS011;37801;53.224;6.552;2023-02-18T08:28:32;17.85;;;8.52;;
51724;SDS011;37801;53.224;6.552;2023-02-18T08:30:58;15.35;;;7.68;;
51724;SDS011;37801;53.224;6.552;2023-02-18T08:33:24;17.90;;;6.93;;
51724;SDS011;37801;53.224;6.552;2023-02-18T08:35:50;11.63;;;6.03;;
51724;SDS011;37801;53.224;6.552;2023-02-18T08:38:17;16.42;;;6.72;;
51724;SDS011;37801;53.224;6.552;2023-02-18T08:40:43;12.55;;;5.68;;
51724;SDS011;37801;53.224;6.552;2023-02-18T08:43:10;15.65;;;5.78;;
51724;SDS011;37801;53.224;6.552;2023-02-18T08:45:38;15.00;;;4.90;;
51724;SDS011;37801;53.224;6.552;2023-02-18T08:48:05;19.95;;;5.25;;
51724;SDS011;37801;53.224;6.552;2023-02-18T08:50:32;12.80;;;4.68;;
51724;SDS011;37801;53.224;6.552;2023-02-18T08:52:58;14.23;;;4.75;;
51724;SDS011;37801;53.224;6.552;2023-02-18T08:55:27;12.00;;;4.47;;
51724;SDS011;37801;53.224;6.552;2023-02-18T08:57:56;11.43;;;3.72;;
51724;SDS011;37801;53.224;6.552;2023-02-18T09:00:22;14.23;;;4.00;;
51724;SDS011;37801;53.224;6.552;2023-02-18T09:02:48;11.27;;;3.88;;
51724;SDS011;37801;53.224;6.552;2023-02-18T09:05:14;10.20;;;4.22;;
51724;SDS011;37801;53.224;6.552;2023-02-18T09:07:40;12.07;;;3.40;;
51724;SDS011;37801;53.224;6.552;2023-02-18T09:10:06;13.70;;;3.53;;
51724;SDS011;37801;53.224;6.552;2023-02-18T09:12:34;7.18;;;3.45;;
51724;SDS011;37801;53.224;6.552;2023-02-18T09:15:00;10.82;;;3.35;;
51724;SDS011;37801;53.224;6.552;2023-02-18T09:17:26;8.63;;;3.20;;
51724;SDS011;37801;53.224;6.552;2023-02-18T09:19:53;8.88;;;3.83;;
51724;SDS011;37801;53.224;6.552;2023-02-18T09:22:19;10.80;;;4.07;;
51724;SDS011;37801;53.224;6.552;2023-02-18T09:24:44;11.10;;;3.67;;
51724;SDS011;37801;53.224;6.552;2023-02-18T09:27:10;12.65;;;3.78;;
51724;SDS011;37801;53.224;6.552;2023-02-18T09:29:37;12.98;;;3.45;;
51724;SDS011;37801;53.224;6.552;2023-02-18T09:32:04;12.93;;;3.88;;
51724;SDS011;37801;53.224;6.552;2023-02-18T09:34:30;16.80;;;4.68;;
51724;SDS011;37801;53.224;6.552;2023-02-18T09:36:57;11.40;;;3.47;;
51724;SDS011;37801;53.224;6.552;2023-02-18T09:39:22;12.15;;;3.67;;
51724;SDS011;37801;53.224;6.552;2023-02-18T09:41:54;12.80;;;3.53;;
51724;SDS011;37801;53.224;6.552;2023-02-18T09:44:30;8.50;;;3.05;;
51724;SDS011;37801;53.224;6.552;2023-02-18T09:49:50;8.45;;;3.00;;
51724;SDS011;37801;53.224;6.552;2023-02-18T09:52:21;12.95;;;3.95;;
51724;SDS011;37801;53.224;6.552;2023-02-18T09:54:52;10.68;;;2.90;;
51724;SDS011;37801;53.224;6.552;2023-02-18T09:57:25;11.50;;;3.10;;
51724;SDS011;37801;53.224;6.552;2023-02-18T10:00:12;12.85;;;3.35;;
51724;SDS011;37801;53.224;6.552;2023-02-18T10:02:57;11.23;;;3.40;;
51724;SDS011;37801;53.224;6.552;2023-02-18T10:05:26;12.40;;;3.15;;
51724;SDS011;37801;53.224;6.552;2023-02-18T10:07:55;14.80;;;2.95;;
51724;SDS011;37801;53.224;6.552;2023-02-18T10:10:30;10.45;;;3.20;;
51724;SDS011;37801;53.224;6.552;2023-02-18T10:12:57;20.55;;;3.47;;
51724;SDS011;37801;53.224;6.552;2023-02-18T10:15:26;18.08;;;3.35;;
51724;SDS011;37801;53.224;6.552;2023-02-18T10:17:54;12.93;;;3.30;;
51724;SDS011;37801;53.224;6.552;2023-02-18T10:20:23;12.18;;;3.17;;
51724;SDS011;37801;53.224;6.552;2023-02-18T10:22:53;11.32;;;2.60;;
51724;SDS011;37801;53.224;6.552;2023-02-18T10:25:21;20.23;;;3.58;;
51724;SDS011;37801;53.224;6.552;2023-02-18T10:27:49;12.85;;;3.13;;
51724;SDS011;37801;53.224;6.552;2023-02-18T10:30:29;24.23;;;3.75;;
51724;SDS011;37801;53.224;6.552;2023-02-18T10:33:04;14.70;;;3.35;;
51724;SDS011;37801;53.224;6.552;2023-02-18T10:46:43;20.27;;;3.72;;
51724;SDS011;37801;53.224;6.552;2023-02-18T10:49:55;17.77;;;3.43;;
51724;SDS011;37801;53.224;6.552;2023-02-18T10:52:29;16.85;;;3.67;;
51724;SDS011;37801;53.224;6.552;2023-02-18T10:57:31;21.60;;;4.30;;
51724;SDS011;37801;53.224;6.552;2023-02-18T11:02:39;19.38;;;3.97;;
51724;SDS011;37801;53.224;6.552;2023-02-18T11:05:16;19.48;;;4.00;;
51724;SDS011;37801;53.224;6.552;2023-02-18T11:07:47;17.42;;;3.63;;
51724;SDS011;37801;53.224;6.552;2023-02-18T11:10:26;15.43;;;3.40;;
51724;SDS011;37801;53.224;6.552;2023-02-18T11:12:59;20.20;;;3.78;;
51724;SDS011;37801;53.224;6.552;2023-02-18T11:15:34;22.15;;;4.28;;
51724;SDS011;37801;53.224;6.552;2023-02-18T11:18:12;18.92;;;3.85;;
51724;SDS011;37801;53.224;6.552;2023-02-18T11:20:55;17.38;;;3.10;;
51724;SDS011;37801;53.224;6.552;2023-02-18T11:23:26;21.02;;;3.85;;
51724;SDS011;37801;53.224;6.552;2023-02-18T11:25:54;11.15;;;2.75;;
51724;SDS011;37801;53.224;6.552;2023-02-18T11:30:53;14.32;;;3.15;;
51724;SDS011;37801;53.224;6.552;2023-02-18T11:33:23;20.90;;;3.50;;
51724;SDS011;37801;53.224;6.552;2023-02-18T11:36:01;15.23;;;3.30;;
51724;SDS011;37801;53.224;6.552;2023-02-18T11:38:34;16.03;;;3.00;;
51724;SDS011;37801;53.224;6.552;2023-02-18T11:41:03;15.07;;;3.25;;
51724;SDS011;37801;53.224;6.552;2023-02-18T11:43:35;16.88;;;3.35;;
51724;SDS011;37801;53.224;6.552;2023-02-18T11:48:39;16.25;;;3.15;;
51724;SDS011;37801;53.224;6.552;2023-02-18T11:51:07;20.55;;;4.03;;
51724;SDS011;37801;53.224;6.552;2023-02-18T11:53:51;16.73;;;4.13;;
51724;SDS011;37801;53.224;6.552;2023-02-18T11:56:17;18.05;;;3.38;;
51724;SDS011;37801;53.224;6.552;2023-02-18T11:58:44;22.10;;;4.32;;
51724;SDS011;37801;53.224;6.552;2023-02-18T12:04:11;16.83;;;3.78;;
51724;SDS011;37801;53.224;6.552;2023-02-18T12:09:26;14.60;;;3.42;;
51724;SDS011;37801;53.224;6.552;2023-02-18T12:11:55;16.13;;;3.75;;
51724;SDS011;37801;53.224;6.552;2023-02-18T12:14:25;21.05;;;3.85;;
51724;SDS011;37801;53.224;6.552;2023-02-18T12:33:44;15.50;;;3.65;;
51724;SDS011;37801;53.224;6.552;2023-02-18T12:36:20;19.40;;;3.70;;
51724;SDS011;37801;53.224;6.552;2023-02-18T12:39:09;21.70;;;3.58;;
51724;SDS011;37801;53.224;6.552;2023-02-18T12:41:48;16.73;;;3.72;;
51724;SDS011;37801;53.224;6.552;2023-02-18T12:44:37;14.70;;;3.63;;
51724;SDS011;37801;53.224;6.552;2023-02-18T12:47:14;18.48;;;3.42;;
51724;SDS011;37801;53.224;6.552;2023-02-18T13:01:14;18.02;;;3.15;;
51724;SDS011;37801;53.224;6.552;2023-02-18T13:09:35;17.42;;;3.35;;
51724;SDS011;37801;53.224;6.552;2023-02-18T13:12:27;14.02;;;2.80;;
51724;SDS011;37801;53.224;6.552;2023-02-18T13:15:04;14.70;;;3.22;;
51724;SDS011;37801;53.224;6.552;2023-02-18T13:17:40;16.25;;;2.83;;
51724;SDS011;37801;53.224;6.552;2023-02-18T13:20:19;17.77;;;3.00;;
51724;SDS011;37801;53.224;6.552;2023-02-18T13:22:48;11.45;;;2.30;;
51724;SDS011;37801;53.224;6.552;2023-02-18T13:25:15;10.77;;;2.35;;
51724;SDS011;37801;53.224;6.552;2023-02-18T13:27:44;16.38;;;3.45;;
51724;SDS011;37801;53.224;6.552;2023-02-18T13:36:00;14.77;;;2.35;;
51724;SDS011;37801;53.224;6.552;2023-02-18T13:41:05;16.15;;;2.88;;
51724;SDS011;37801;53.224;6.552;2023-02-18T13:43:33;12.40;;;2.30;;
51724;SDS011;37801;53.224;6.552;2023-02-18T13:48:43;15.18;;;2.92;;
51724;SDS011;37801;53.224;6.552;2023-02-18T13:51:32;13.23;;;2.40;;
51724;SDS011;37801;53.224;6.552;2023-02-18T13:54:06;19.17;;;3.17;;
51724;SDS011;37801;53.224;6.552;2023-02-18T13:56:49;14.63;;;2.72;;
51724;SDS011;37801;53.224;6.552;2023-02-18T13:59:37;16.08;;;2.90;;
51724;SDS011;37801;53.224;6.552;2023-02-18T14:02:21;12.32;;;2.72;;
51724;SDS011;37801;53.224;6.552;2023-02-18T14:05:13;10.95;;;3.13;;
51724;SDS011;37801;53.224;6.552;2023-02-18T14:07:51;17.83;;;3.22;;
51724;SDS011;37801;53.224;6.552;2023-02-18T14:10:37;17.65;;;3.25;;
51724;SDS011;37801;53.224;6.552;2023-02-18T14:13:20;14.68;;;2.83;;
51724;SDS011;37801;53.224;6.552;2023-02-18T14:16:03;10.07;;;2.40;;
51724;SDS011;37801;53.224;6.552;2023-02-18T14:18:30;22.95;;;3.47;;
51724;SDS011;37801;53.224;6.552;2023-02-18T14:23:42;12.48;;;3.08;;
51724;SDS011;37801;53.224;6.552;2023-02-18T14:28:54;17.73;;;3.35;;
51724;SDS011;37801;53.224;6.552;2023-02-18T14:31:26;18.08;;;3.60;;
51724;SDS011;37801;53.224;6.552;2023-02-18T14:34:13;12.52;;;2.63;;
51724;SDS011;37801;53.224;6.552;2023-02-18T14:45:22;14.63;;;2.90;;
51724;SDS011;37801;53.224;6.552;2023-02-18T14:48:01;16.45;;;2.78;;
51724;SDS011;37801;53.224;6.552;2023-02-18T14:50:41;19.77;;;3.30;;
51724;SDS011;37801;53.224;6.552;2023-02-18T14:53:14;21.20;;;3.88;;
51724;SDS011;37801;53.224;6.552;2023-02-18T14:55:47;20.63;;;3.20;;
51724;SDS011;37801;53.224;6.552;2023-02-18T15:00:44;18.40;;;3.45;;
51724;SDS011;37801;53.224;6.552;2023-02-18T15:03:12;22.80;;;3.67;;
51724;SDS011;37801;53.224;6.552;2023-02-18T15:05:43;18.35;;;3.88;;
51724;SDS011;37801;53.224;6.552;2023-02-18T15:08:13;18.65;;;3.05;;
51724;SDS011;37801;53.224;6.552;2023-02-18T15:10:45;13.50;;;3.00;;
51724;SDS011;37801;53.224;6.552;2023-02-18T15:13:20;19.27;;;3.40;;
51724;SDS011;37801;53.224;6.552;2023-02-18T15:15:55;17.27;;;3.58;;
51724;SDS011;37801;53.224;6.552;2023-02-18T15:21:01;15.13;;;3.67;;
51724;SDS011;37801;53.224;6.552;2023-02-18T15:23:29;15.90;;;3.88;;
51724;SDS011;37801;53.224;6.552;2023-02-18T15:25:59;21.48;;;3.00;;
51724;SDS011;37801;53.224;6.552;2023-02-18T15:28:30;25.00;;;3.85;;
51724;SDS011;37801;53.224;6.552;2023-02-18T15:30:57;19.23;;;3.75;;
51724;SDS011;37801;53.224;6.552;2023-02-18T15:33:24;19.33;;;3.83;;
51724;SDS011;37801;53.224;6.552;2023-02-18T15:35:51;16.00;;;2.83;;
51724;SDS011;37801;53.224;6.552;2023-02-18T15:38:24;18.35;;;3.38;;
51724;SDS011;37801;53.224;6.552;2023-02-18T15:40:51;17.25;;;3.33;;
51724;SDS011;37801;53.224;6.552;2023-02-18T15:43:20;15.57;;;2.95;;
51724;SDS011;37801;53.224;6.552;2023-02-18T15:45:48;20.75;;;3.58;;
51724;SDS011;37801;53.224;6.552;2023-02-18T15:50:56;19.02;;;3.70;;
51724;SDS011;37801;53.224;6.552;2023-02-18T15:53:26;21.15;;;4.95;;
51724;SDS011;37801;53.224;6.552;2023-02-18T15:55:52;18.30;;;3.35;;
51724;SDS011;37801;53.224;6.552;2023-02-18T15:58:23;18.77;;;3.13;;
51724;SDS011;37801;53.224;6.552;2023-02-18T16:00:57;19.80;;;3.42;;
51724;SDS011;37801;53.224;6.552;2023-02-18T16:03:28;15.63;;;3.25;;
51724;SDS011;37801;53.224;6.552;2023-02-18T16:08:33;22.67;;;3.67;;
51724;SDS011;37801;53.224;6.552;2023-02-18T16:11:00;19.05;;;3.53;;
51724;SDS011;37801;53.224;6.552;2023-02-18T16:13:29;19.50;;;3.47;;
51724;SDS011;37801;53.224;6.552;2023-02-18T16:15:56;12.30;;;2.63;;
51724;SDS011;37801;53.224;6.552;2023-02-18T16:18:24;17.88;;;3.47;;
51724;SDS011;37801;53.224;6.552;2023-02-18T16:20:57;17.60;;;3.58;;
51724;SDS011;37801;53.224;6.552;2023-02-18T16:23:33;21.17;;;3.95;;
51724;SDS011;37801;53.224;6.552;2023-02-18T16:26:08;22.20;;;4.22;;
51724;SDS011;37801;53.224;6.552;2023-02-18T16:28:40;17.83;;;3.13;;
51724;SDS011;37801;53.224;6.552;2023-02-18T16:31:07;15.95;;;3.35;;
51724;SDS011;37801;53.224;6.552;2023-02-18T16:33:33;16.63;;;3.30;;
51724;SDS011;37801;53.224;6.552;2023-02-18T16:35:58;24.80;;;4.05;;
51724;SDS011;37801;53.224;6.552;2023-02-18T16:38:24;16.13;;;3.75;;
51724;SDS011;37801;53.224;6.552;2023-02-18T16:40:51;20.83;;;4.45;;
51724;SDS011;37801;53.224;6.552;2023-02-18T16:43:19;20.40;;;3.83;;
51724;SDS011;37801;53.224;6.552;2023-02-18T16:45:47;24.73;;;4.65;;
51724;SDS011;37801;53.224;6.552;2023-02-18T16:48:17;20.70;;;3.55;;
51724;SDS011;37801;53.224;6.552;2023-02-18T16:50:57;19.15;;;3.78;;
51724;SDS011;37801;53.224;6.552;2023-02-18T16:53:26;25.23;;;3.28;;
51724;SDS011;37801;53.224;6.552;2023-02-18T16:55:52;20.88;;;3.28;;
51724;SDS011;37801;53.224;6.552;2023-02-18T16:58:18;17.60;;;3.35;;
51724;SDS011;37801;53.224;6.552;2023-02-18T17:00:44;15.57;;;3.00;;
51724;SDS011;37801;53.224;6.552;2023-02-18T17:03:11;19.00;;;2.92;;
51724;SDS011;37801;53.224;6.552;2023-02-18T17:05:38;20.85;;;3.53;;
51724;SDS011;37801;53.224;6.552;2023-02-18T17:10:43;15.27;;;2.85;;
51724;SDS011;37801;53.224;6.552;2023-02-18T17:13:20;22.63;;;3.42;;